createdAt,value
2018-11-03T00:02:34.617Z,5.50
2018-11-03T00:07:36.850Z,5.90
2018-11-03T00:12:39.486Z,5.47
2018-11-03T00:17:42.736Z,5.10
2018-11-03T00:22:45.317Z,4.87
2018-11-03T00:27:47.558Z,5.17
2018-11-03T00:32:49.781Z,4.70
2018-11-03T00:37:52.002Z,4.20
2018-11-03T00:42:54.294Z,5.10
2018-11-03T00:47:56.461Z,4.70
2018-11-03T00:52:58.674Z,4.53
2018-11-03T00:58:00.898Z,4.73
2018-11-03T01:03:03.143Z,4.63
2018-11-03T01:08:05.521Z,4.73
2018-11-03T01:13:07.774Z,4.53
2018-11-03T01:18:10.044Z,5.03
2018-11-03T01:23:12.300Z,4.87
2018-11-03T01:28:14.555Z,5.40
2018-11-03T01:33:16.801Z,6.47
2018-11-03T01:38:19.042Z,6.37
2018-11-03T01:43:21.292Z,5.70
2018-11-03T01:48:23.520Z,5.77
2018-11-03T01:53:25.758Z,5.53
2018-11-03T01:58:28.010Z,5.50
2018-11-03T02:03:30.241Z,5.43
2018-11-03T02:08:32.502Z,6.20
2018-11-03T02:13:34.733Z,5.80
2018-11-03T02:18:36.978Z,6.37
2018-11-03T02:23:39.193Z,6.00
2018-11-03T02:28:41.436Z,5.57
2018-11-03T02:33:43.622Z,5.90
2018-11-03T02:38:45.850Z,6.20
2018-11-03T02:43:48.071Z,5.60
2018-11-03T02:48:50.360Z,4.83
2018-11-03T02:53:52.578Z,5.27
2018-11-03T02:58:54.806Z,5.10
2018-11-03T03:03:57.030Z,5.57
2018-11-03T03:08:59.267Z,5.00
2018-11-03T03:14:01.522Z,5.90
2018-11-03T03:19:04.106Z,5.17
2018-11-03T03:24:06.434Z,5.20
2018-11-03T03:29:08.870Z,5.77
2018-11-03T03:34:11.095Z,5.73
2018-11-03T03:39:13.331Z,6.00
2018-11-03T03:44:15.578Z,6.10
2018-11-03T03:49:17.865Z,5.80
2018-11-03T03:54:20.218Z,5.27
2018-11-03T03:59:22.491Z,5.90
2018-11-03T04:04:24.745Z,6.80
2018-11-03T04:09:26.988Z,6.80
2018-11-03T04:14:29.325Z,7.30
2018-11-03T04:19:31.631Z,7.87
2018-11-03T04:24:33.861Z,8.30
2018-11-03T04:29:36.090Z,8.67
2018-11-03T04:34:38.365Z,9.23
2018-11-03T04:39:40.706Z,9.97
2018-11-03T04:44:42.973Z,8.90
2018-11-03T04:49:45.222Z,9.03
2018-11-03T04:54:47.466Z,10.37
2018-11-03T04:59:49.710Z,10.90
2018-11-03T05:04:51.951Z,10.00
2018-11-03T05:09:54.262Z,10.50
2018-11-03T05:14:56.515Z,10.90
2018-11-03T05:19:58.787Z,11.20
2018-11-03T05:25:01.039Z,11.77
2018-11-03T05:30:03.562Z,11.63
2018-11-03T05:35:05.894Z,12.27
2018-11-03T05:40:08.147Z,11.80
2018-11-03T05:45:10.406Z,12.30
2018-11-03T05:50:12.730Z,12.77
2018-11-03T05:55:14.965Z,12.93
2018-11-03T06:00:17.201Z,12.80
2018-11-03T06:05:19.445Z,14.80
2018-11-03T06:10:21.674Z,12.90
2018-11-03T06:15:23.909Z,12.63
2018-11-03T06:20:26.362Z,14.50
2018-11-03T06:25:28.598Z,14.50
2018-11-03T06:30:30.926Z,14.17
2018-11-03T06:35:33.182Z,13.90
2018-11-03T06:40:35.410Z,14.17
2018-11-03T06:45:37.636Z,13.13
2018-11-03T06:50:40.103Z,13.67
2018-11-03T06:55:42.346Z,13.73
2018-11-03T07:00:44.667Z,13.80
2018-11-03T07:05:46.887Z,12.93
2018-11-03T07:10:49.217Z,11.30
2018-11-03T07:15:51.466Z,11.53
2018-11-03T07:20:53.775Z,11.13
2018-11-03T07:25:56.044Z,11.73
2018-11-03T07:30:58.271Z,11.30
2018-11-03T07:36:00.489Z,12.17
2018-11-03T07:41:02.951Z,10.57
2018-11-03T07:46:05.238Z,10.93
2018-11-03T07:51:07.522Z,11.00
2018-11-03T07:56:09.775Z,11.43
2018-11-03T08:01:12.036Z,11.40
2018-11-03T08:06:14.414Z,11.67
2018-11-03T08:11:16.682Z,10.90
2018-11-03T08:16:18.893Z,11.17
2018-11-03T08:21:21.146Z,11.00
2018-11-03T08:26:23.405Z,10.97
2018-11-03T08:31:25.718Z,11.47
2018-11-03T08:36:27.914Z,11.67
2018-11-03T08:41:30.166Z,11.63
2018-11-03T08:46:32.413Z,11.10
2018-11-03T08:51:34.679Z,11.50
2018-11-03T08:56:36.918Z,11.53
2018-11-03T09:01:39.164Z,11.57
2018-11-03T09:06:41.411Z,12.40
2018-11-03T09:11:43.661Z,12.83
2018-11-03T09:16:46.047Z,13.00
2018-11-03T09:21:48.376Z,19.93
2018-11-03T09:26:50.529Z,13.80
2018-11-03T09:31:52.830Z,11.90
2018-11-03T09:36:55.027Z,11.83
2018-11-03T09:41:57.263Z,11.70
2018-11-03T09:46:59.513Z,12.03
2018-11-03T09:52:02.653Z,13.70
2018-11-03T09:57:05.258Z,13.63
2018-11-03T10:02:07.509Z,14.30
2018-11-03T10:07:09.766Z,13.63
2018-11-03T10:12:12.007Z,13.27
2018-11-03T10:17:14.250Z,13.57
2018-11-03T10:22:16.585Z,13.30
2018-11-03T10:27:18.737Z,14.00
2018-11-03T10:32:20.958Z,13.80
2018-11-03T10:37:23.194Z,13.00
2018-11-03T10:42:25.637Z,12.60
2018-11-03T10:47:27.870Z,12.77
2018-11-03T10:52:30.126Z,16.00
2018-11-03T10:57:32.360Z,13.00
2018-11-03T11:02:40.387Z,12.17
2018-11-03T11:07:48.553Z,13.60
2018-11-03T11:12:51.298Z,12.47
2018-11-03T11:17:53.514Z,13.70
2018-11-03T11:22:55.760Z,13.27
2018-11-03T11:27:57.998Z,14.70
2018-11-03T11:33:00.235Z,13.60
2018-11-03T11:38:02.512Z,12.67
2018-11-03T11:43:05.255Z,12.90
2018-11-03T11:48:07.414Z,15.10
2018-11-03T11:53:09.654Z,13.50
2018-11-03T11:58:11.906Z,14.10
2018-11-03T12:03:14.138Z,12.97
2018-11-03T12:08:16.398Z,12.80
2018-11-03T12:13:18.668Z,13.40
2018-11-03T12:18:20.898Z,12.10
2018-11-03T12:23:23.129Z,12.20
2018-11-03T12:28:25.361Z,11.53
2018-11-03T12:33:27.762Z,13.00
2018-11-03T12:38:30.014Z,16.60
2018-11-03T12:43:32.262Z,13.17
2018-11-03T12:48:34.578Z,12.23
2018-11-03T12:53:36.846Z,11.43
2018-11-03T12:58:39.069Z,12.00
2018-11-03T13:03:41.716Z,11.40
2018-11-03T13:08:44.051Z,11.13
2018-11-03T13:13:46.294Z,11.50
2018-11-03T13:18:48.523Z,10.30
2018-11-03T13:23:50.782Z,11.00
2018-11-03T13:28:53.084Z,11.30
2018-11-03T13:33:55.387Z,12.13
2018-11-03T13:38:57.662Z,11.40
2018-11-03T13:43:59.937Z,17.03
2018-11-03T13:49:02.275Z,11.87
2018-11-03T13:54:04.562Z,10.50
2018-11-03T13:59:06.779Z,11.27
2018-11-03T14:04:09.020Z,10.73
2018-11-03T14:09:11.230Z,11.13
2018-11-03T14:14:13.454Z,10.67
2018-11-03T14:19:15.687Z,11.60
2018-11-03T14:24:17.994Z,10.70
2018-11-03T14:29:20.311Z,10.50
2018-11-03T14:34:22.461Z,15.00
2018-11-03T14:39:24.714Z,11.77
2018-11-03T14:44:26.981Z,9.93
2018-11-03T14:49:29.208Z,10.37
2018-11-03T14:54:31.478Z,9.80
2018-11-03T14:59:33.746Z,10.80
2018-11-03T15:04:35.982Z,11.10
2018-11-03T15:09:38.253Z,11.20
2018-11-03T15:14:40.593Z,9.00
2018-11-03T15:19:42.790Z,11.80
2018-11-03T15:24:45.084Z,9.80
2018-11-03T15:29:47.323Z,9.80
2018-11-03T15:34:49.601Z,9.50
2018-11-03T15:39:51.808Z,9.57
2018-11-03T15:44:54.058Z,9.60
2018-11-03T15:49:56.322Z,10.20
2018-11-03T15:54:58.628Z,9.70
2018-11-03T16:00:00.934Z,9.80
2018-11-03T16:05:03.230Z,10.27
2018-11-03T16:10:06.506Z,9.43
2018-11-03T16:15:09.926Z,11.43
2018-11-03T16:20:12.776Z,13.70
2018-11-03T16:25:15.149Z,12.40
2018-11-03T16:30:17.506Z,12.43
2018-11-03T16:35:19.816Z,13.83
2018-11-03T16:40:22.041Z,13.20
2018-11-03T16:45:24.307Z,13.00
2018-11-03T16:50:26.612Z,15.10
2018-11-03T16:55:28.957Z,12.33
2018-11-03T17:00:31.134Z,27.73
2018-11-03T17:05:33.435Z,11.70
2018-11-03T17:10:35.701Z,13.00
2018-11-03T17:15:37.942Z,12.47
2018-11-03T17:20:40.213Z,11.37
2018-11-03T17:25:42.466Z,11.13
2018-11-03T17:30:44.725Z,11.53
2018-11-03T17:35:46.978Z,11.07
2018-11-03T17:40:49.273Z,12.57
2018-11-03T17:45:51.518Z,13.43
2018-11-03T17:50:53.786Z,12.23
2018-11-03T17:55:56.042Z,12.27
2018-11-03T18:00:58.312Z,15.30
2018-11-03T18:06:00.567Z,16.53
2018-11-03T18:11:02.811Z,17.80
2018-11-03T18:16:05.655Z,16.70
2018-11-03T18:21:07.931Z,13.80
2018-11-03T18:26:10.579Z,12.90
2018-11-03T18:31:12.796Z,13.63
2018-11-03T18:41:24.124Z,15.63
2018-11-03T18:46:26.331Z,13.80
2018-11-03T18:51:28.579Z,14.07
2018-11-03T18:56:30.906Z,15.57
2018-11-03T19:01:33.162Z,19.17
2018-11-03T19:06:35.447Z,17.53
2018-11-03T19:11:37.698Z,16.97
2018-11-03T19:16:39.962Z,14.10
2018-11-03T19:21:42.210Z,18.40
2018-11-03T19:26:44.542Z,17.70
2018-11-03T19:31:46.822Z,20.80
2018-11-03T19:36:49.065Z,16.63
2018-11-03T19:41:51.448Z,18.00
2018-11-03T19:46:53.559Z,14.60
2018-11-03T19:51:56.678Z,15.03
2018-11-03T19:56:58.941Z,13.60
2018-11-03T20:02:01.135Z,15.37
2018-11-03T20:07:03.482Z,14.40
2018-11-03T20:12:06.374Z,14.40
2018-11-03T20:17:08.638Z,14.70
2018-11-03T20:22:10.913Z,14.27
2018-11-03T20:27:13.230Z,15.47
2018-11-03T20:32:15.494Z,15.33
2018-11-03T20:37:17.746Z,12.73
2018-11-03T20:42:21.010Z,12.80
2018-11-03T20:47:23.262Z,12.70
2018-11-03T20:52:25.505Z,14.60
2018-11-03T20:57:27.817Z,13.93
2018-11-03T21:02:30.066Z,13.30
2018-11-03T21:07:32.341Z,14.03
2018-11-03T21:12:34.658Z,13.73
2018-11-03T21:17:36.914Z,13.70
2018-11-03T21:22:39.174Z,14.10
2018-11-03T21:27:41.478Z,13.67
2018-11-03T21:32:43.831Z,13.90
2018-11-03T21:37:46.037Z,14.03
2018-11-03T21:42:48.296Z,13.43
2018-11-03T21:47:50.557Z,14.10
2018-11-03T21:52:52.813Z,13.70
2018-11-03T21:57:55.119Z,14.20
2018-11-03T22:02:57.365Z,13.80
2018-11-03T22:07:59.626Z,15.10
2018-11-03T22:13:01.896Z,12.87
2018-11-03T22:18:04.298Z,12.90
2018-11-03T22:23:08.714Z,14.13
2018-11-03T22:28:11.055Z,14.90
2018-11-03T22:33:13.315Z,14.90
2018-11-03T22:38:15.690Z,15.20
2018-11-03T22:43:17.942Z,14.87
2018-11-03T22:48:20.210Z,15.17
2018-11-03T22:53:22.450Z,14.40
2018-11-03T22:58:24.734Z,15.33
2018-11-03T23:03:27.016Z,16.03
2018-11-03T23:08:29.255Z,14.50
2018-11-03T23:13:31.516Z,15.00
2018-11-03T23:18:33.757Z,15.83
2018-11-03T23:23:36.018Z,15.33
2018-11-03T23:28:38.293Z,15.93
2018-11-03T23:33:40.585Z,15.83
2018-11-03T23:38:42.829Z,16.33
2018-11-03T23:43:45.058Z,15.50
2018-11-03T23:48:47.310Z,16.70
2018-11-03T23:53:49.542Z,16.60
2018-11-03T23:58:52.024Z,15.83
